sensor_id;sensor_type;location;lat;lon;timestamp;P1;durP1;ratioP1;P2;durP2;ratioP2
67181;SDS011;54114;53.524;49.396;2023-04-03T00:00:38;7.28;;;2.15;;
67181;SDS011;54114;53.524;49.396;2023-04-03T00:03:07;0.50;;;0.50;;
67181;SDS011;54114;53.524;49.396;2023-04-03T00:05:43;0.25;;;0.25;;
67181;SDS011;54114;53.524;49.396;2023-04-03T00:08:15;19.73;;;2.62;;
67181;SDS011;54114;53.524;49.396;2023-04-03T00:10:47;2.05;;;0.85;;
67181;SDS011;54114;53.524;49.396;2023-04-03T00:13:16;10.35;;;2.40;;
67181;SDS011;54114;53.524;49.396;2023-04-03T00:15:45;9.95;;;2.45;;
67181;SDS011;54114;53.524;49.396;2023-04-03T00:18:16;8.88;;;2.72;;
67181;SDS011;54114;53.524;49.396;2023-04-03T00:20:48;11.52;;;2.40;;
67181;SDS011;54114;53.524;49.396;2023-04-03T00:23:19;0.20;;;0.10;;
67181;SDS011;54114;53.524;49.396;2023-04-03T00:25:46;8.20;;;2.87;;
67181;SDS011;54114;53.524;49.396;2023-04-03T00:28:16;7.78;;;2.35;;
67181;SDS011;54114;53.524;49.396;2023-04-03T00:30:42;0.28;;;0.25;;
67181;SDS011;54114;53.524;49.396;2023-04-03T00:33:14;7.65;;;1.98;;
67181;SDS011;54114;53.524;49.396;2023-04-03T00:38:18;9.20;;;2.33;;
67181;SDS011;54114;53.524;49.396;2023-04-03T00:40:46;0.00;;;0.00;;
67181;SDS011;54114;53.524;49.396;2023-04-03T00:43:16;7.60;;;2.42;;
67181;SDS011;54114;53.524;49.396;2023-04-03T00:45:55;0.62;;;0.55;;
67181;SDS011;54114;53.524;49.396;2023-04-03T00:48:34;5.50;;;0.37;;
67181;SDS011;54114;53.524;49.396;2023-04-03T00:51:25;4.10;;;2.33;;
67181;SDS011;54114;53.524;49.396;2023-04-03T00:53:58;13.65;;;2.80;;
67181;SDS011;54114;53.524;49.396;2023-04-03T00:56:32;9.65;;;2.70;;
67181;SDS011;54114;53.524;49.396;2023-04-03T00:59:04;0.65;;;0.45;;
67181;SDS011;54114;53.524;49.396;2023-04-03T01:01:37;17.05;;;3.25;;
67181;SDS011;54114;53.524;49.396;2023-04-03T01:07:02;0.35;;;0.28;;
67181;SDS011;54114;53.524;49.396;2023-04-03T01:09:39;0.90;;;0.50;;
67181;SDS011;54114;53.524;49.396;2023-04-03T01:12:15;0.00;;;0.00;;
67181;SDS011;54114;53.524;49.396;2023-04-03T01:14:45;8.15;;;2.15;;
67181;SDS011;54114;53.524;49.396;2023-04-03T01:17:33;0.10;;;0.10;;
67181;SDS011;54114;53.524;49.396;2023-04-03T01:20:19;0.10;;;0.08;;
67181;SDS011;54114;53.524;49.396;2023-04-03T01:22:59;9.43;;;2.55;;
67181;SDS011;54114;53.524;49.396;2023-04-03T01:25:44;0.00;;;0.00;;
67181;SDS011;54114;53.524;49.396;2023-04-03T01:28:33;6.97;;;2.20;;
67181;SDS011;54114;53.524;49.396;2023-04-03T01:34:17;0.00;;;0.00;;
67181;SDS011;54114;53.524;49.396;2023-04-03T01:36:45;5.12;;;1.90;;
67181;SDS011;54114;53.524;49.396;2023-04-03T01:39:17;11.45;;;2.40;;
67181;SDS011;54114;53.524;49.396;2023-04-03T01:41:46;0.37;;;0.37;;
67181;SDS011;54114;53.524;49.396;2023-04-03T01:44:24;0.10;;;0.10;;
67181;SDS011;54114;53.524;49.396;2023-04-03T01:47:00;12.50;;;2.75;;
67181;SDS011;54114;53.524;49.396;2023-04-03T01:49:32;13.40;;;2.92;;
67181;SDS011;54114;53.524;49.396;2023-04-03T01:52:01;2.75;;;0.93;;
67181;SDS011;54114;53.524;49.396;2023-04-03T01:54:30;15.25;;;2.92;;
67181;SDS011;54114;53.524;49.396;2023-04-03T01:57:00;0.50;;;0.50;;
67181;SDS011;54114;53.524;49.396;2023-04-03T01:59:30;7.07;;;1.80;;
67181;SDS011;54114;53.524;49.396;2023-04-03T02:01:57;9.70;;;1.92;;
67181;SDS011;54114;53.524;49.396;2023-04-03T02:04:25;9.23;;;2.03;;
67181;SDS011;54114;53.524;49.396;2023-04-03T02:07:01;0.98;;;0.45;;
67181;SDS011;54114;53.524;49.396;2023-04-03T02:09:32;0.00;;;0.00;;
67181;SDS011;54114;53.524;49.396;2023-04-03T02:12:04;1.10;;;0.35;;
67181;SDS011;54114;53.524;49.396;2023-04-03T02:14:38;0.40;;;0.40;;
67181;SDS011;54114;53.524;49.396;2023-04-03T02:17:04;7.43;;;1.87;;
67181;SDS011;54114;53.524;49.396;2023-04-03T02:19:36;13.93;;;2.30;;
67181;SDS011;54114;53.524;49.396;2023-04-03T02:22:05;0.98;;;0.20;;
67181;SDS011;54114;53.524;49.396;2023-04-03T02:24:36;1.40;;;0.88;;
67181;SDS011;54114;53.524;49.396;2023-04-03T02:27:06;0.13;;;0.13;;
67181;SDS011;54114;53.524;49.396;2023-04-03T02:29:38;17.95;;;2.80;;
67181;SDS011;54114;53.524;49.396;2023-04-03T02:32:07;13.00;;;2.67;;
67181;SDS011;54114;53.524;49.396;2023-04-03T02:34:33;0.50;;;0.40;;
67181;SDS011;54114;53.524;49.396;2023-04-03T02:37:02;23.70;;;3.80;;
67181;SDS011;54114;53.524;49.396;2023-04-03T02:39:31;12.32;;;2.70;;
67181;SDS011;54114;53.524;49.396;2023-04-03T02:42:00;19.37;;;3.10;;
67181;SDS011;54114;53.524;49.396;2023-04-03T02:44:27;1.45;;;0.20;;
67181;SDS011;54114;53.524;49.396;2023-04-03T02:46:54;11.05;;;1.98;;
67181;SDS011;54114;53.524;49.396;2023-04-03T02:49:23;13.82;;;2.05;;
67181;SDS011;54114;53.524;49.396;2023-04-03T02:51:49;3.22;;;0.73;;
67181;SDS011;54114;53.524;49.396;2023-04-03T02:54:16;16.17;;;2.28;;
67181;SDS011;54114;53.524;49.396;2023-04-03T02:56:43;11.32;;;2.00;;
67181;SDS011;54114;53.524;49.396;2023-04-03T02:59:09;12.90;;;2.00;;
67181;SDS011;54114;53.524;49.396;2023-04-03T03:01:39;16.20;;;2.05;;
67181;SDS011;54114;53.524;49.396;2023-04-03T03:04:06;11.48;;;1.77;;
67181;SDS011;54114;53.524;49.396;2023-04-03T03:06:32;6.55;;;1.40;;
67181;SDS011;54114;53.524;49.396;2023-04-03T03:08:59;1.30;;;0.62;;
67181;SDS011;54114;53.524;49.396;2023-04-03T03:11:26;8.63;;;1.80;;
67181;SDS011;54114;53.524;49.396;2023-04-03T03:13:55;16.75;;;1.98;;
67181;SDS011;54114;53.524;49.396;2023-04-03T03:16:22;3.45;;;1.42;;
67181;SDS011;54114;53.524;49.396;2023-04-03T03:18:49;9.68;;;1.90;;
67181;SDS011;54114;53.524;49.396;2023-04-03T03:21:18;6.60;;;1.33;;
67181;SDS011;54114;53.524;49.396;2023-04-03T03:23:45;9.70;;;1.45;;
67181;SDS011;54114;53.524;49.396;2023-04-03T03:26:12;4.60;;;1.45;;
67181;SDS011;54114;53.524;49.396;2023-04-03T03:28:39;5.95;;;1.60;;
67181;SDS011;54114;53.524;49.396;2023-04-03T03:31:06;6.72;;;1.60;;
67181;SDS011;54114;53.524;49.396;2023-04-03T03:33:35;14.70;;;2.12;;
67181;SDS011;54114;53.524;49.396;2023-04-03T03:36:05;11.27;;;1.33;;
67181;SDS011;54114;53.524;49.396;2023-04-03T03:38:32;6.78;;;1.30;;
67181;SDS011;54114;53.524;49.396;2023-04-03T03:40:59;9.68;;;1.58;;
67181;SDS011;54114;53.524;49.396;2023-04-03T03:43:25;8.65;;;1.45;;
67181;SDS011;54114;53.524;49.396;2023-04-03T03:45:53;7.18;;;1.70;;
67181;SDS011;54114;53.524;49.396;2023-04-03T03:48:21;13.52;;;1.42;;
67181;SDS011;54114;53.524;49.396;2023-04-03T03:50:48;10.95;;;1.55;;
67181;SDS011;54114;53.524;49.396;2023-04-03T03:53:15;8.23;;;1.42;;
67181;SDS011;54114;53.524;49.396;2023-04-03T03:55:43;6.70;;;1.35;;
67181;SDS011;54114;53.524;49.396;2023-04-03T03:58:09;11.85;;;1.50;;
67181;SDS011;54114;53.524;49.396;2023-04-03T04:00:36;17.55;;;1.90;;
67181;SDS011;54114;53.524;49.396;2023-04-03T04:03:03;6.55;;;1.50;;
67181;SDS011;54114;53.524;49.396;2023-04-03T04:05:30;7.60;;;1.40;;
67181;SDS011;54114;53.524;49.396;2023-04-03T04:07:57;11.15;;;2.00;;
67181;SDS011;54114;53.524;49.396;2023-04-03T04:10:23;13.88;;;1.75;;
67181;SDS011;54114;53.524;49.396;2023-04-03T04:12:52;14.95;;;1.80;;
67181;SDS011;54114;53.524;49.396;2023-04-03T04:15:19;11.68;;;1.58;;
67181;SDS011;54114;53.524;49.396;2023-04-03T04:17:47;15.10;;;1.60;;
67181;SDS011;54114;53.524;49.396;2023-04-03T04:20:13;11.93;;;1.55;;
67181;SDS011;54114;53.524;49.396;2023-04-03T04:22:40;5.40;;;0.90;;
67181;SDS011;54114;53.524;49.396;2023-04-03T04:25:07;9.75;;;0.93;;
67181;SDS011;54114;53.524;49.396;2023-04-03T04:27:35;3.83;;;1.10;;
67181;SDS011;54114;53.524;49.396;2023-04-03T04:30:03;19.20;;;1.65;;
67181;SDS011;54114;53.524;49.396;2023-04-03T04:32:30;7.00;;;1.15;;
67181;SDS011;54114;53.524;49.396;2023-04-03T04:34:57;5.93;;;1.08;;
67181;SDS011;54114;53.524;49.396;2023-04-03T04:37:23;11.73;;;1.30;;
67181;SDS011;54114;53.524;49.396;2023-04-03T04:39:50;8.88;;;1.12;;
67181;SDS011;54114;53.524;49.396;2023-04-03T04:42:17;10.60;;;1.42;;
67181;SDS011;54114;53.524;49.396;2023-04-03T04:44:43;6.30;;;1.55;;
67181;SDS011;54114;53.524;49.396;2023-04-03T04:47:10;13.85;;;1.23;;
67181;SDS011;54114;53.524;49.396;2023-04-03T04:49:37;11.63;;;1.40;;
67181;SDS011;54114;53.524;49.396;2023-04-03T04:52:04;4.97;;;1.10;;
67181;SDS011;54114;53.524;49.396;2023-04-03T04:54:31;6.20;;;0.98;;
67181;SDS011;54114;53.524;49.396;2023-04-03T04:56:58;5.05;;;1.23;;
67181;SDS011;54114;53.524;49.396;2023-04-03T04:59:25;5.07;;;1.05;;
67181;SDS011;54114;53.524;49.396;2023-04-03T05:01:54;5.00;;;1.27;;
67181;SDS011;54114;53.524;49.396;2023-04-03T05:04:21;6.25;;;1.12;;
67181;SDS011;54114;53.524;49.396;2023-04-03T05:06:48;11.10;;;1.12;;
67181;SDS011;54114;53.524;49.396;2023-04-03T05:09:14;3.37;;;0.98;;
67181;SDS011;54114;53.524;49.396;2023-04-03T05:11:45;13.18;;;0.85;;
67181;SDS011;54114;53.524;49.396;2023-04-03T05:14:12;7.40;;;1.00;;
67181;SDS011;54114;53.524;49.396;2023-04-03T05:16:38;6.40;;;1.15;;
67181;SDS011;54114;53.524;49.396;2023-04-03T05:19:05;11.45;;;1.10;;
67181;SDS011;54114;53.524;49.396;2023-04-03T05:21:32;13.88;;;1.02;;
67181;SDS011;54114;53.524;49.396;2023-04-03T05:23:59;5.07;;;0.80;;
67181;SDS011;54114;53.524;49.396;2023-04-03T05:26:30;12.23;;;1.02;;
67181;SDS011;54114;53.524;49.396;2023-04-03T05:28:57;2.03;;;1.00;;
67181;SDS011;54114;53.524;49.396;2023-04-03T05:31:24;8.05;;;0.85;;
67181;SDS011;54114;53.524;49.396;2023-04-03T05:33:54;12.98;;;1.20;;
67181;SDS011;54114;53.524;49.396;2023-04-03T05:36:21;6.57;;;1.48;;
67181;SDS011;54114;53.524;49.396;2023-04-03T05:38:51;11.77;;;1.27;;
67181;SDS011;54114;53.524;49.396;2023-04-03T05:41:22;9.10;;;1.58;;
67181;SDS011;54114;53.524;49.396;2023-04-03T05:43:49;6.10;;;1.37;;
67181;SDS011;54114;53.524;49.396;2023-04-03T05:46:16;16.23;;;1.50;;
67181;SDS011;54114;53.524;49.396;2023-04-03T05:48:45;9.60;;;0.80;;
67181;SDS011;54114;53.524;49.396;2023-04-03T05:51:16;14.50;;;1.20;;
67181;SDS011;54114;53.524;49.396;2023-04-03T05:54:00;13.65;;;1.85;;
67181;SDS011;54114;53.524;49.396;2023-04-03T05:56:44;12.93;;;1.35;;
67181;SDS011;54114;53.524;49.396;2023-04-03T05:59:11;16.27;;;1.42;;
67181;SDS011;54114;53.524;49.396;2023-04-03T06:01:37;18.08;;;1.60;;
67181;SDS011;54114;53.524;49.396;2023-04-03T06:04:04;11.25;;;1.12;;
67181;SDS011;54114;53.524;49.396;2023-04-03T06:09:37;8.10;;;1.02;;
67181;SDS011;54114;53.524;49.396;2023-04-03T06:12:03;4.30;;;1.30;;
67181;SDS011;54114;53.524;49.396;2023-04-03T06:14:30;13.75;;;1.00;;
67181;SDS011;54114;53.524;49.396;2023-04-03T06:16:57;3.35;;;1.20;;
67181;SDS011;54114;53.524;49.396;2023-04-03T06:19:25;4.45;;;1.50;;
67181;SDS011;54114;53.524;49.396;2023-04-03T06:21:52;6.20;;;1.37;;
67181;SDS011;54114;53.524;49.396;2023-04-03T06:24:18;7.82;;;1.48;;
67181;SDS011;54114;53.524;49.396;2023-04-03T06:26:48;3.12;;;0.85;;
67181;SDS011;54114;53.524;49.396;2023-04-03T06:29:17;13.98;;;1.30;;
67181;SDS011;54114;53.524;49.396;2023-04-03T06:31:48;5.45;;;1.15;;
67181;SDS011;54114;53.524;49.396;2023-04-03T06:34:16;6.15;;;1.10;;
67181;SDS011;54114;53.524;49.396;2023-04-03T06:36:44;4.55;;;0.93;;
67181;SDS011;54114;53.524;49.396;2023-04-03T06:39:20;4.35;;;1.12;;
67181;SDS011;54114;53.524;49.396;2023-04-03T06:41:50;11.05;;;1.40;;
67181;SDS011;54114;53.524;49.396;2023-04-03T06:44:17;7.50;;;1.37;;
67181;SDS011;54114;53.524;49.396;2023-04-03T06:46:44;8.50;;;1.20;;
67181;SDS011;54114;53.524;49.396;2023-04-03T06:49:12;17.58;;;1.40;;
67181;SDS011;54114;53.524;49.396;2023-04-03T06:51:40;6.07;;;1.00;;
67181;SDS011;54114;53.524;49.396;2023-04-03T06:54:06;4.25;;;1.20;;
67181;SDS011;54114;53.524;49.396;2023-04-03T06:56:33;6.78;;;1.40;;
67181;SDS011;54114;53.524;49.396;2023-04-03T06:59:00;12.55;;;1.62;;
67181;SDS011;54114;53.524;49.396;2023-04-03T07:01:28;9.25;;;2.55;;
67181;SDS011;54114;53.524;49.396;2023-04-03T07:03:58;15.35;;;3.47;;
67181;SDS011;54114;53.524;49.396;2023-04-03T07:06:25;5.47;;;1.80;;
67181;SDS011;54114;53.524;49.396;2023-04-03T07:08:52;8.88;;;1.40;;
67181;SDS011;54114;53.524;49.396;2023-04-03T07:11:20;8.30;;;1.02;;
67181;SDS011;54114;53.524;49.396;2023-04-03T07:13:47;11.52;;;1.37;;
67181;SDS011;54114;53.524;49.396;2023-04-03T07:16:15;16.50;;;1.02;;
67181;SDS011;54114;53.524;49.396;2023-04-03T07:18:45;11.80;;;1.70;;
67181;SDS011;54114;53.524;49.396;2023-04-03T07:21:12;4.57;;;1.10;;
67181;SDS011;54114;53.524;49.396;2023-04-03T07:23:39;28.83;;;1.62;;
67181;SDS011;54114;53.524;49.396;2023-04-03T07:26:06;10.60;;;1.10;;
67181;SDS011;54114;53.524;49.396;2023-04-03T07:28:33;10.45;;;1.50;;
67181;SDS011;54114;53.524;49.396;2023-04-03T07:31:01;5.40;;;1.20;;
67181;SDS011;54114;53.524;49.396;2023-04-03T07:33:34;21.80;;;1.65;;
67181;SDS011;54114;53.524;49.396;2023-04-03T07:36:01;8.07;;;1.00;;
67181;SDS011;54114;53.524;49.396;2023-04-03T07:38:29;28.83;;;1.85;;
67181;SDS011;54114;53.524;49.396;2023-04-03T07:40:56;13.10;;;1.50;;
67181;SDS011;54114;53.524;49.396;2023-04-03T07:43:22;13.50;;;1.52;;
67181;SDS011;54114;53.524;49.396;2023-04-03T07:45:50;10.38;;;2.00;;
67181;SDS011;54114;53.524;49.396;2023-04-03T07:48:18;11.30;;;1.70;;
67181;SDS011;54114;53.524;49.396;2023-04-03T07:50:46;11.48;;;1.33;;
67181;SDS011;54114;53.524;49.396;2023-04-03T07:53:13;14.70;;;1.58;;
67181;SDS011;54114;53.524;49.396;2023-04-03T07:55:41;15.57;;;1.62;;
67181;SDS011;54114;53.524;49.396;2023-04-03T07:58:11;11.43;;;1.23;;
67181;SDS011;54114;53.524;49.396;2023-04-03T08:00:42;21.65;;;1.55;;
67181;SDS011;54114;53.524;49.396;2023-04-03T08:03:12;13.88;;;1.12;;
67181;SDS011;54114;53.524;49.396;2023-04-03T08:05:43;12.02;;;1.70;;
67181;SDS011;54114;53.524;49.396;2023-04-03T08:08:13;6.55;;;1.30;;
67181;SDS011;54114;53.524;49.396;2023-04-03T08:10:47;12.48;;;1.60;;
67181;SDS011;54114;53.524;49.396;2023-04-03T08:13:16;11.40;;;1.40;;
67181;SDS011;54114;53.524;49.396;2023-04-03T08:15:44;12.43;;;1.25;;
67181;SDS011;54114;53.524;49.396;2023-04-03T08:18:12;18.65;;;1.83;;
67181;SDS011;54114;53.524;49.396;2023-04-03T08:20:40;13.45;;;1.20;;
67181;SDS011;54114;53.524;49.396;2023-04-03T08:23:07;8.43;;;1.08;;
67181;SDS011;54114;53.524;49.396;2023-04-03T08:25:43;10.18;;;0.98;;
67181;SDS011;54114;53.524;49.396;2023-04-03T08:28:17;10.75;;;1.20;;
67181;SDS011;54114;53.524;49.396;2023-04-03T08:30:49;14.52;;;1.35;;
67181;SDS011;54114;53.524;49.396;2023-04-03T08:33:18;7.25;;;1.27;;
67181;SDS011;54114;53.524;49.396;2023-04-03T08:35:47;8.45;;;1.20;;
67181;SDS011;54114;53.524;49.396;2023-04-03T08:38:15;21.17;;;1.37;;
67181;SDS011;54114;53.524;49.396;2023-04-03T08:40:41;15.63;;;1.60;;
67181;SDS011;54114;53.524;49.396;2023-04-03T08:46:05;13.50;;;1.70;;
67181;SDS011;54114;53.524;49.396;2023-04-03T08:48:41;10.23;;;1.23;;
67181;SDS011;54114;53.524;49.396;2023-04-03T08:51:17;7.78;;;1.27;;
67181;SDS011;54114;53.524;49.396;2023-04-03T08:53:50;15.20;;;1.40;;
67181;SDS011;54114;53.524;49.396;2023-04-03T08:56:27;10.63;;;1.23;;
67181;SDS011;54114;53.524;49.396;2023-04-03T08:58:56;12.37;;;1.40;;
67181;SDS011;54114;53.524;49.396;2023-04-03T09:01:30;21.83;;;1.60;;
67181;SDS011;54114;53.524;49.396;2023-04-03T09:04:10;13.13;;;1.27;;
67181;SDS011;54114;53.524;49.396;2023-04-03T09:06:40;12.25;;;1.40;;
67181;SDS011;54114;53.524;49.396;2023-04-03T09:17:59;7.25;;;1.00;;
67181;SDS011;54114;53.524;49.396;2023-04-03T09:21:08;8.18;;;1.35;;
67181;SDS011;54114;53.524;49.396;2023-04-03T09:23:49;15.82;;;1.40;;
67181;SDS011;54114;53.524;49.396;2023-04-03T09:26:20;7.22;;;1.27;;
67181;SDS011;54114;53.524;49.396;2023-04-03T09:28:55;18.67;;;1.30;;
67181;SDS011;54114;53.524;49.396;2023-04-03T09:31:35;9.52;;;1.40;;
67181;SDS011;54114;53.524;49.396;2023-04-03T09:34:50;10.30;;;1.02;;
67181;SDS011;54114;53.524;49.396;2023-04-03T09:37:02;6.10;;;1.20;;
67181;SDS011;54114;53.524;49.396;2023-04-03T09:39:50;13.52;;;1.73;;
67181;SDS011;54114;53.524;49.396;2023-04-03T09:42:20;15.73;;;1.65;;
67181;SDS011;54114;53.524;49.396;2023-04-03T09:44:54;8.23;;;1.10;;
67181;SDS011;54114;53.524;49.396;2023-04-03T09:47:31;16.83;;;1.23;;
67181;SDS011;54114;53.524;49.396;2023-04-03T09:52:41;15.38;;;1.30;;
67181;SDS011;54114;53.524;49.396;2023-04-03T09:57:55;14.77;;;1.92;;
67181;SDS011;54114;53.524;49.396;2023-04-03T10:00:35;18.90;;;1.52;;
67181;SDS011;54114;53.524;49.396;2023-04-03T10:03:08;14.75;;;1.65;;
67181;SDS011;54114;53.524;49.396;2023-04-03T10:06:01;11.15;;;1.37;;
67181;SDS011;54114;53.524;49.396;2023-04-03T10:08:38;20.33;;;1.27;;
67181;SDS011;54114;53.524;49.396;2023-04-03T10:11:15;18.80;;;1.40;;
67181;SDS011;54114;53.524;49.396;2023-04-03T10:13:55;18.98;;;1.62;;
67181;SDS011;54114;53.524;49.396;2023-04-03T10:16:34;14.55;;;1.35;;
67181;SDS011;54114;53.524;49.396;2023-04-03T10:19:14;11.55;;;1.40;;
67181;SDS011;54114;53.524;49.396;2023-04-03T10:38:46;9.30;;;1.23;;
67181;SDS011;54114;53.524;49.396;2023-04-03T10:41:33;20.42;;;1.73;;
67181;SDS011;54114;53.524;49.396;2023-04-03T10:44:27;18.15;;;1.50;;
67181;SDS011;54114;53.524;49.396;2023-04-03T10:47:15;8.43;;;0.90;;
67181;SDS011;54114;53.524;49.396;2023-04-03T10:50:09;11.12;;;1.17;;
67181;SDS011;54114;53.524;49.396;2023-04-03T10:52:51;9.80;;;1.10;;
67181;SDS011;54114;53.524;49.396;2023-04-03T10:58:57;15.05;;;1.17;;
67181;SDS011;54114;53.524;49.396;2023-04-03T11:01:55;18.48;;;1.98;;
67181;SDS011;54114;53.524;49.396;2023-04-03T11:04:38;11.75;;;1.15;;
67181;SDS011;54114;53.524;49.396;2023-04-03T11:09:48;18.60;;;1.60;;
67181;SDS011;54114;53.524;49.396;2023-04-03T11:15:15;11.95;;;1.80;;
67181;SDS011;54114;53.524;49.396;2023-04-03T11:18:04;18.17;;;2.40;;
67181;SDS011;54114;53.524;49.396;2023-04-03T11:20:40;10.25;;;2.10;;
67181;SDS011;54114;53.524;49.396;2023-04-03T11:23:35;5.22;;;1.20;;
67181;SDS011;54114;53.524;49.396;2023-04-03T11:26:09;10.52;;;1.60;;
67181;SDS011;54114;53.524;49.396;2023-04-03T11:28:41;13.00;;;1.50;;
67181;SDS011;54114;53.524;49.396;2023-04-03T11:37:11;13.50;;;2.03;;
67181;SDS011;54114;53.524;49.396;2023-04-03T11:39:52;12.02;;;1.40;;
67181;SDS011;54114;53.524;49.396;2023-04-03T11:42:32;11.20;;;1.30;;
67181;SDS011;54114;53.524;49.396;2023-04-03T11:48:05;16.62;;;1.70;;
67181;SDS011;54114;53.524;49.396;2023-04-03T11:50:55;14.23;;;1.48;;
67181;SDS011;54114;53.524;49.396;2023-04-03T11:56:26;11.43;;;1.85;;
67181;SDS011;54114;53.524;49.396;2023-04-03T12:04:18;17.25;;;1.50;;
67181;SDS011;54114;53.524;49.396;2023-04-03T12:06:50;11.98;;;1.20;;
67181;SDS011;54114;53.524;49.396;2023-04-03T12:09:24;14.30;;;2.03;;
67181;SDS011;54114;53.524;49.396;2023-04-03T12:11:51;16.75;;;1.70;;
67181;SDS011;54114;53.524;49.396;2023-04-03T12:14:18;17.00;;;1.40;;
67181;SDS011;54114;53.524;49.396;2023-04-03T12:16:53;9.65;;;1.65;;
67181;SDS011;54114;53.524;49.396;2023-04-03T12:19:34;10.55;;;1.83;;
67181;SDS011;54114;53.524;49.396;2023-04-03T12:22:06;12.77;;;1.60;;
67181;SDS011;54114;53.524;49.396;2023-04-03T12:24:40;8.77;;;0.98;;
67181;SDS011;54114;53.524;49.396;2023-04-03T12:27:28;9.30;;;1.65;;
67181;SDS011;54114;53.524;49.396;2023-04-03T12:30:04;8.35;;;1.40;;
67181;SDS011;54114;53.524;49.396;2023-04-03T12:32:58;8.68;;;1.62;;
67181;SDS011;54114;53.524;49.396;2023-04-03T12:38:45;14.95;;;1.48;;
67181;SDS011;54114;53.524;49.396;2023-04-03T12:41:35;15.97;;;1.63;;
67181;SDS011;54114;53.524;49.396;2023-04-03T12:46:52;12.23;;;1.85;;
67181;SDS011;54114;53.524;49.396;2023-04-03T12:51:57;13.43;;;1.65;;
67181;SDS011;54114;53.524;49.396;2023-04-03T12:54:32;16.00;;;1.52;;
67181;SDS011;54114;53.524;49.396;2023-04-03T12:57:24;8.15;;;1.62;;
67181;SDS011;54114;53.524;49.396;2023-04-03T12:59:53;14.00;;;1.60;;
67181;SDS011;54114;53.524;49.396;2023-04-03T13:02:31;8.88;;;1.15;;
67181;SDS011;54114;53.524;49.396;2023-04-03T13:05:06;16.90;;;1.98;;
67181;SDS011;54114;53.524;49.396;2023-04-03T13:07:42;11.68;;;1.67;;
67181;SDS011;54114;53.524;49.396;2023-04-03T13:12:45;10.98;;;1.12;;
67181;SDS011;54114;53.524;49.396;2023-04-03T13:15:13;22.33;;;1.45;;
67181;SDS011;54114;53.524;49.396;2023-04-03T13:17:52;10.02;;;0.98;;
67181;SDS011;54114;53.524;49.396;2023-04-03T13:20:29;13.35;;;1.02;;
67181;SDS011;54114;53.524;49.396;2023-04-03T13:22:59;10.15;;;1.37;;
67181;SDS011;54114;53.524;49.396;2023-04-03T13:25:35;9.23;;;1.83;;
67181;SDS011;54114;53.524;49.396;2023-04-03T13:28:06;10.13;;;1.45;;
67181;SDS011;54114;53.524;49.396;2023-04-03T13:30:53;5.62;;;1.42;;
67181;SDS011;54114;53.524;49.396;2023-04-03T13:33:33;10.05;;;1.48;;
67181;SDS011;54114;53.524;49.396;2023-04-03T13:36:16;19.45;;;2.05;;
67181;SDS011;54114;53.524;49.396;2023-04-03T13:39:56;14.98;;;1.52;;
67181;SDS011;54114;53.524;49.396;2023-04-03T13:41:50;13.20;;;1.73;;
67181;SDS011;54114;53.524;49.396;2023-04-03T13:51:51;16.15;;;1.80;;
67181;SDS011;54114;53.524;49.396;2023-04-03T13:54:32;8.15;;;1.30;;
67181;SDS011;54114;53.524;49.396;2023-04-03T13:57:01;11.15;;;1.50;;
67181;SDS011;54114;53.524;49.396;2023-04-03T13:59:38;19.77;;;1.30;;
67181;SDS011;54114;53.524;49.396;2023-04-03T14:02:22;16.58;;;1.73;;
67181;SDS011;54114;53.524;49.396;2023-04-03T14:05:04;12.80;;;1.17;;
67181;SDS011;54114;53.524;49.396;2023-04-03T14:07:33;20.73;;;1.73;;
67181;SDS011;54114;53.524;49.396;2023-04-03T14:10:00;27.42;;;1.73;;
67181;SDS011;54114;53.524;49.396;2023-04-03T14:12:28;15.85;;;1.58;;
67181;SDS011;54114;53.524;49.396;2023-04-03T14:15:10;19.17;;;2.20;;
67181;SDS011;54114;53.524;49.396;2023-04-03T14:17:57;25.20;;;2.63;;
67181;SDS011;54114;53.524;49.396;2023-04-03T14:20:26;8.45;;;1.80;;
67181;SDS011;54114;53.524;49.396;2023-04-03T14:22:55;7.93;;;1.48;;
67181;SDS011;54114;53.524;49.396;2023-04-03T14:25:22;17.02;;;1.67;;
67181;SDS011;54114;53.524;49.396;2023-04-03T14:27:50;15.00;;;1.83;;
67181;SDS011;54114;53.524;49.396;2023-04-03T14:30:25;23.42;;;1.60;;
67181;SDS011;54114;53.524;49.396;2023-04-03T14:32:55;44.30;;;1.83;;
67181;SDS011;54114;53.524;49.396;2023-04-03T14:35:23;14.43;;;1.27;;
67181;SDS011;54114;53.524;49.396;2023-04-03T14:37:51;16.77;;;1.40;;
67181;SDS011;54114;53.524;49.396;2023-04-03T14:40:20;13.95;;;1.50;;
67181;SDS011;54114;53.524;49.396;2023-04-03T14:42:54;9.27;;;1.35;;
67181;SDS011;54114;53.524;49.396;2023-04-03T14:45:24;17.30;;;2.08;;
67181;SDS011;54114;53.524;49.396;2023-04-03T14:47:54;12.30;;;2.10;;
67181;SDS011;54114;53.524;49.396;2023-04-03T14:50:27;21.77;;;2.30;;
67181;SDS011;54114;53.524;49.396;2023-04-03T14:52:57;12.00;;;2.80;;
67181;SDS011;54114;53.524;49.396;2023-04-03T14:55:27;16.02;;;2.70;;
67181;SDS011;54114;53.524;49.396;2023-04-03T14:57:58;36.13;;;5.15;;
67181;SDS011;54114;53.524;49.396;2023-04-03T15:00:29;14.43;;;4.05;;
67181;SDS011;54114;53.524;49.396;2023-04-03T15:03:00;20.05;;;3.17;;
67181;SDS011;54114;53.524;49.396;2023-04-03T15:05:27;15.10;;;1.67;;
67181;SDS011;54114;53.524;49.396;2023-04-03T15:07:54;19.92;;;2.30;;
67181;SDS011;54114;53.524;49.396;2023-04-03T15:10:29;36.65;;;3.05;;
67181;SDS011;54114;53.524;49.396;2023-04-03T15:12:59;37.80;;;3.53;;
67181;SDS011;54114;53.524;49.396;2023-04-03T15:15:32;27.08;;;3.40;;
67181;SDS011;54114;53.524;49.396;2023-04-03T15:18:02;30.55;;;3.85;;
67181;SDS011;54114;53.524;49.396;2023-04-03T15:20:31;24.33;;;3.65;;
67181;SDS011;54114;53.524;49.396;2023-04-03T15:23:00;46.72;;;4.65;;
67181;SDS011;54114;53.524;49.396;2023-04-03T15:25:27;29.55;;;3.60;;
67181;SDS011;54114;53.524;49.396;2023-04-03T15:27:56;22.15;;;3.50;;
67181;SDS011;54114;53.524;49.396;2023-04-03T15:30:24;16.55;;;2.90;;
67181;SDS011;54114;53.524;49.396;2023-04-03T15:32:53;32.85;;;4.28;;
67181;SDS011;54114;53.524;49.396;2023-04-03T15:35:19;46.03;;;6.35;;
67181;SDS011;54114;53.524;49.396;2023-04-03T15:37:46;33.20;;;4.30;;
67181;SDS011;54114;53.524;49.396;2023-04-03T15:40:13;43.87;;;5.65;;
67181;SDS011;54114;53.524;49.396;2023-04-03T15:42:45;27.48;;;5.20;;
67181;SDS011;54114;53.524;49.396;2023-04-03T15:45:17;54.83;;;4.43;;
67181;SDS011;54114;53.524;49.396;2023-04-03T15:47:44;25.12;;;4.18;;
67181;SDS011;54114;53.524;49.396;2023-04-03T15:50:10;34.17;;;5.03;;
67181;SDS011;54114;53.524;49.396;2023-04-03T15:52:46;71.45;;;7.57;;
67181;SDS011;54114;53.524;49.396;2023-04-03T15:57:53;37.85;;;5.37;;
67181;SDS011;54114;53.524;49.396;2023-04-03T16:00:20;31.60;;;5.55;;
67181;SDS011;54114;53.524;49.396;2023-04-03T16:02:49;47.17;;;6.20;;
67181;SDS011;54114;53.524;49.396;2023-04-03T16:05:20;32.35;;;5.55;;
67181;SDS011;54114;53.524;49.396;2023-04-03T16:07:47;28.17;;;5.22;;
67181;SDS011;54114;53.524;49.396;2023-04-03T16:10:19;18.55;;;4.28;;
67181;SDS011;54114;53.524;49.396;2023-04-03T16:12:48;26.23;;;4.57;;
67181;SDS011;54114;53.524;49.396;2023-04-03T16:15:21;27.48;;;5.15;;
67181;SDS011;54114;53.524;49.396;2023-04-03T16:17:49;40.00;;;6.07;;
67181;SDS011;54114;53.524;49.396;2023-04-03T16:20:16;47.00;;;6.05;;
67181;SDS011;54114;53.524;49.396;2023-04-03T16:22:47;49.45;;;7.22;;
67181;SDS011;54114;53.524;49.396;2023-04-03T16:25:14;36.17;;;6.57;;